This is the latest recevied weather packets stored in our database for station/object PY2CQC-13. If no packets are shown the sender has not sent any weather packets the latest 10 day(s).
| Time | Temp. | Humidity | Pressure | Rain* | Wind** | Luminosity | Snow |
|---|---|---|---|---|---|---|---|
| 1777431725 | 23.89° C | 72% | 1033.8 hPa | - | - | - | - |
| 1777429924 | 23.89° C | 72% | 1033.5 hPa | - | - | - | - |
| 1777428124 | 24.44° C | 72% | 1033.6 hPa | - | - | - | - |
| 1777426324 | 24.44° C | 71% | 1033.7 hPa | - | - | - | - |
| 1777424525 | 24.44° C | 70% | 1033.6 hPa | - | - | - | - |
| 1777422725 | 25° C | 70% | 1033.6 hPa | - | - | - | - |
| 1777420925 | 25° C | 70% | 1033.6 hPa | - | - | - | - |
| 1777419125 | 25.56° C | 70% | 1033.4 hPa | - | - | - | - |
| 1777417325 | 25.56° C | 70% | 1033.3 hPa | - | - | - | - |
| 1777415524 | 24.44° C | 74% | 1032.8 hPa | - | - | - | - |
| 1777413724 | 25° C | 72% | 1032.6 hPa | - | - | - | - |
| 1777411925 | 25.56° C | 71% | 1032.2 hPa | - | - | - | - |
| 1777410125 | 25.56° C | 69% | 1032 hPa | - | - | - | - |
| 1777408325 | 25.56° C | 68% | 1031.9 hPa | - | - | - | - |
| 1777406526 | 26.11° C | 67% | 1031.9 hPa | - | - | - | - |
| 1777404725 | 26.11° C | 67% | 1031.7 hPa | - | - | - | - |
| 1777402924 | 26.11° C | 65% | 1031.6 hPa | - | - | - | - |
| 1777401124 | 26.11° C | 66% | 1031.7 hPa | - | - | - | - |
| 1777399325 | 26.11° C | 66% | 1031.7 hPa | - | - | - | - |
| 1777397525 | 26.11° C | 65% | 1031.8 hPa | - | - | - | - |
| 1777395725 | 26.11° C | 65% | 1032 hPa | - | - | - | - |
| 1777393925 | 25.56° C | 66% | 1032.5 hPa | - | - | - | - |
| 1777392126 | 25.56° C | 65% | 1032.8 hPa | - | - | - | - |
| 1777390324 | 25.56° C | 64% | 1033.3 hPa | - | - | - | - |
| 1777388524 | 25° C | 66% | 1033.6 hPa | - | - | - | - |
* Rain since midnight (hover to see other rain measurements)
** Current wind speed in m/s (hover to see current wind gust speed)